createdAt,value
2022-10-02T00:00:01.257Z,96340.83
2022-10-02T00:03:02.335Z,96346.41
2022-10-02T00:05:41.931Z,96346.36
2022-10-02T00:08:24.183Z,96350.77
2022-10-02T00:11:07.185Z,96353.89
2022-10-02T00:13:55.952Z,96362.16
2022-10-02T00:16:28.125Z,96371.54
2022-10-02T00:18:58.906Z,96375.84
2022-10-02T00:22:09.469Z,96395.01
2022-10-02T00:28:13.314Z,96411.27
2022-10-02T00:31:12.608Z,96402.52
2022-10-02T00:33:48.881Z,96406.69
2022-10-02T00:36:36.743Z,96409.06
2022-10-02T00:39:46.805Z,96409.98
2022-10-02T00:42:58.930Z,96410.63
2022-10-02T00:45:46.849Z,96406.13
2022-10-02T00:48:34.709Z,96407.23
2022-10-02T00:51:35.769Z,96406.39
2022-10-02T00:54:24.572Z,96414.73
2022-10-02T00:57:04.954Z,96412.15
2022-10-02T00:59:52.788Z,96420.60
2022-10-02T01:02:27.404Z,96417.33
2022-10-02T01:05:06.012Z,96425.64
2022-10-02T01:07:40.041Z,96428.21
2022-10-02T01:10:10.517Z,96420.79
2022-10-02T01:12:40.307Z,96419.41
2022-10-02T01:15:18.451Z,96423.77
2022-10-02T01:17:50.068Z,96422.54
2022-10-02T01:20:33.630Z,96419.71
2022-10-02T01:23:16.908Z,96426.43
2022-10-02T01:25:45.709Z,96421.89
2022-10-02T01:28:17.271Z,96423.44
2022-10-02T01:30:56.148Z,96407.39
2022-10-02T01:33:37.139Z,96414.08
2022-10-02T01:36:07.911Z,96412.33
2022-10-02T01:38:42.994Z,96411.95
2022-10-02T01:41:14.267Z,96416.77
2022-10-02T01:43:51.412Z,96406.86
2022-10-02T01:46:30.529Z,96402.30
2022-10-02T01:49:18.278Z,96397.11
2022-10-02T01:52:01.502Z,96387.48
2022-10-02T01:55:03.995Z,96374.74
2022-10-02T01:58:08.101Z,96358.09
2022-10-02T02:01:21.867Z,96351.06
2022-10-02T02:04:12.446Z,96356.27
2022-10-02T02:06:57.694Z,96350.96
2022-10-02T02:09:38.718Z,96355.05
2022-10-02T02:12:31.117Z,96358.75
2022-10-02T02:15:18.378Z,96364.41
2022-10-02T02:17:53.705Z,96372.01
2022-10-02T02:23:17.635Z,96375.96
2022-10-02T02:26:04.231Z,96380.98
2022-10-02T02:28:35.975Z,96383.17
2022-10-02T02:31:09.108Z,96386.29
2022-10-02T02:33:50.766Z,96388.73
2022-10-02T02:36:25.067Z,96395.26
2022-10-02T02:39:03.931Z,96389.46
2022-10-02T02:41:40.771Z,96401.06
2022-10-02T02:44:16.621Z,96406.70
2022-10-02T02:47:08.403Z,96413.07
2022-10-02T02:49:39.792Z,96411.21
2022-10-02T02:52:17.533Z,96427.55
2022-10-02T02:54:56.623Z,96427.14
2022-10-02T02:57:38.830Z,96437.66
2022-10-02T03:00:10.442Z,96429.36
2022-10-02T03:05:38.918Z,96442.77
2022-10-02T03:08:27.126Z,96444.79
2022-10-02T03:11:51.937Z,96451.22
2022-10-02T03:14:32.515Z,96457.82
2022-10-02T03:17:06.961Z,96463.11
2022-10-02T03:19:53.070Z,96469.73
2022-10-02T03:22:57.566Z,96476.05
2022-10-02T03:25:36.074Z,96472.05
2022-10-02T03:28:08.564Z,96474.98
2022-10-02T03:30:40.581Z,96486.30
2022-10-02T03:33:13.733Z,96479.38
2022-10-02T03:35:46.285Z,96485.77
2022-10-02T03:38:19.837Z,96484.89
2022-10-02T03:40:48.412Z,96494.26
2022-10-02T03:43:24.960Z,96499.52
2022-10-02T03:45:58.346Z,96519.73
2022-10-02T03:48:28.038Z,96514.52
2022-10-02T03:51:02.716Z,96516.50
2022-10-02T03:53:38.749Z,96522.14
2022-10-02T03:56:39.378Z,96525.77
2022-10-02T03:59:16.043Z,96535.29
2022-10-02T04:01:50.991Z,96534.39
2022-10-02T04:04:37.041Z,96547.21
2022-10-02T04:07:07.938Z,96553.27
2022-10-02T04:09:59.680Z,96555.21
2022-10-02T04:12:39.944Z,96556.46
2022-10-02T04:15:22.170Z,96548.55
2022-10-02T04:18:03.916Z,96561.03
2022-10-02T04:21:05.259Z,96556.13
2022-10-02T04:23:40.193Z,96568.27
2022-10-02T04:26:16.053Z,96567.73
2022-10-02T04:28:53.389Z,96572.27
2022-10-02T04:31:21.635Z,96573.82
2022-10-02T04:33:49.783Z,96579.38
2022-10-02T04:36:55.246Z,96582.86
2022-10-02T04:39:30.250Z,96581.13
2022-10-02T04:42:16.220Z,96578.23
2022-10-02T04:45:04.367Z,96579.30
2022-10-02T04:47:57.786Z,96584.96
2022-10-02T04:50:51.105Z,96591.43
2022-10-02T04:53:46.110Z,96592.37
2022-10-02T04:56:38.757Z,96593.70
2022-10-02T04:59:40.254Z,96594.61
2022-10-02T05:02:46.004Z,96602.38
2022-10-02T05:05:33.309Z,96603.80
2022-10-02T05:08:17.239Z,96607.17
2022-10-02T05:11:13.739Z,96617.02
2022-10-02T05:13:52.803Z,96616.67
2022-10-02T05:16:24.585Z,96620.20
2022-10-02T05:19:11.850Z,96614.30
2022-10-02T05:22:08.945Z,96618.34
2022-10-02T05:24:55.154Z,96624.65
2022-10-02T05:27:32.684Z,96626.71
2022-10-02T05:30:07.199Z,96635.20
2022-10-02T05:33:15.556Z,96635.48
2022-10-02T05:35:47.419Z,96632.65
2022-10-02T05:38:24.710Z,96645.88
2022-10-02T05:41:11.951Z,96645.95
2022-10-02T05:44:00.084Z,96644.64
2022-10-02T05:46:36.111Z,96646.85
2022-10-02T05:49:18.522Z,96653.48
2022-10-02T05:51:59.326Z,96656.15
2022-10-02T05:54:33.284Z,96653.02
2022-10-02T05:57:27.431Z,96645.50
2022-10-02T06:00:17.050Z,96651.41
2022-10-02T06:03:20.085Z,96655.13
2022-10-02T06:05:59.428Z,96653.83
2022-10-02T06:08:50.231Z,96657.16
2022-10-02T06:11:32.469Z,96659.67
2022-10-02T06:14:12.076Z,96660.77
2022-10-02T06:16:48.478Z,96667.48
2022-10-02T06:19:24.913Z,96669.23
2022-10-02T06:22:09.232Z,96661.41
2022-10-02T06:24:47.631Z,96667.73
2022-10-02T06:27:28.879Z,96676.11
2022-10-02T06:30:06.467Z,96675.23
2022-10-02T06:33:00.429Z,96689.27
2022-10-02T06:35:35.678Z,96687.61
2022-10-02T06:38:18.553Z,96697.45
2022-10-02T06:41:10.752Z,96693.86
2022-10-02T06:44:15.396Z,96701.60
2022-10-02T06:47:00.302Z,96702.94
2022-10-02T06:49:52.818Z,96691.02
2022-10-02T06:52:38.450Z,96693.70
2022-10-02T06:55:19.959Z,96705.84
2022-10-02T06:58:15.983Z,96706.41
2022-10-02T07:00:56.550Z,96709.34
2022-10-02T07:03:55.746Z,96706.92
2022-10-02T07:06:49.393Z,96719.23
2022-10-02T07:09:20.779Z,96720.45
2022-10-02T07:12:25.089Z,96724.97
2022-10-02T07:15:13.152Z,96723.23
2022-10-02T07:17:47.420Z,96717.02
2022-10-02T07:20:31.713Z,96727.54
2022-10-02T07:23:44.458Z,96735.82
2022-10-02T07:26:16.201Z,96747.63
2022-10-02T07:29:20.945Z,96745.11
2022-10-02T07:32:11.124Z,96745.54
2022-10-02T07:35:01.014Z,96741.89
2022-10-02T07:37:40.223Z,96753.20
2022-10-02T07:40:17.797Z,96752.83
2022-10-02T07:43:07.796Z,96760.29
2022-10-02T07:45:57.617Z,96755.94
2022-10-02T07:49:07.144Z,96757.32
2022-10-02T07:52:06.334Z,96752.88
2022-10-02T07:55:09.590Z,96754.08
2022-10-02T07:58:02.673Z,96759.22
2022-10-02T08:00:41.748Z,96756.08
2022-10-02T08:03:19.792Z,96760.50
2022-10-02T08:05:54.846Z,96761.47
2022-10-02T08:08:31.898Z,96766.21
2022-10-02T08:11:13.130Z,96760.98
2022-10-02T08:13:48.502Z,96767.85
2022-10-02T08:16:29.638Z,96769.42
2022-10-02T08:19:30.879Z,96769.42
2022-10-02T08:22:29.272Z,96774.34
2022-10-02T08:25:07.912Z,96780.69
2022-10-02T08:28:02.739Z,96769.52
2022-10-02T08:30:33.831Z,96773.02
2022-10-02T08:33:06.209Z,96762.16
2022-10-02T08:35:52.252Z,96779.78
2022-10-02T08:38:32.522Z,96775.50
2022-10-02T08:41:20.117Z,96774.09
2022-10-02T08:44:07.392Z,96775.03
2022-10-02T08:47:01.614Z,96774.69
2022-10-02T08:49:48.491Z,96781.91
2022-10-02T08:52:56.697Z,96785.74
2022-10-02T08:55:44.637Z,96782.59
2022-10-02T08:58:32.115Z,96789.71
2022-10-02T09:01:29.298Z,96790.91
2022-10-02T09:04:49.815Z,96791.00
2022-10-02T09:07:30.915Z,96780.34
2022-10-02T09:10:12.685Z,96779.78
2022-10-02T09:13:12.264Z,96774.89
2022-10-02T09:15:54.317Z,96777.69
2022-10-02T09:18:43.559Z,96780.37
2022-10-02T09:21:16.618Z,96766.36
2022-10-02T09:24:08.826Z,96761.89
2022-10-02T09:27:36.097Z,96767.34
2022-10-02T09:30:24.423Z,96771.23
2022-10-02T09:33:16.368Z,96766.33
2022-10-02T09:35:53.899Z,96762.75
2022-10-02T09:38:46.562Z,96760.76
2022-10-02T09:41:50.454Z,96754.88
2022-10-02T09:44:45.009Z,96750.89
2022-10-02T09:47:37.139Z,96752.64
2022-10-02T09:50:44.082Z,96750.09
2022-10-02T09:53:38.019Z,96756.19
2022-10-02T09:56:21.059Z,96760.52
2022-10-02T09:59:22.345Z,96756.08
2022-10-02T10:01:54.431Z,96756.11
2022-10-02T10:05:04.688Z,96750.58
2022-10-02T10:07:36.790Z,96745.41
2022-10-02T10:10:28.641Z,96761.77
2022-10-02T10:13:08.869Z,96759.34
2022-10-02T10:15:57.219Z,96758.92
2022-10-02T10:18:43.067Z,96764.88
2022-10-02T10:21:42.099Z,96772.23
2022-10-02T10:24:32.500Z,96772.54
2022-10-02T10:27:19.133Z,96758.69
2022-10-02T10:30:16.823Z,96765.20
2022-10-02T10:33:35.243Z,96761.08
2022-10-02T10:36:56.861Z,96764.81
2022-10-02T10:40:18.141Z,96747.65
2022-10-02T10:43:08.739Z,96748.81
2022-10-02T10:46:08.690Z,96749.39
2022-10-02T10:48:49.399Z,96761.23
2022-10-02T10:51:46.027Z,96747.99
2022-10-02T10:54:50.669Z,96739.58
2022-10-02T10:57:50.977Z,96741.23
2022-10-02T11:00:19.168Z,96739.48
2022-10-02T11:03:22.228Z,96737.02
2022-10-02T11:06:16.997Z,96739.16
2022-10-02T11:09:09.745Z,96734.59
2022-10-02T11:12:09.874Z,96729.55
2022-10-02T11:15:03.388Z,96732.28
2022-10-02T11:17:37.147Z,96734.38
2022-10-02T11:20:47.217Z,96737.34
2022-10-02T11:23:35.176Z,96731.40
2022-10-02T11:26:09.237Z,96727.16
2022-10-02T11:29:11.018Z,96740.64
2022-10-02T11:31:42.742Z,96727.89
2022-10-02T11:34:20.235Z,96731.63
2022-10-02T11:37:25.088Z,96722.96
2022-10-02T11:39:56.986Z,96724.31
2022-10-02T11:42:55.369Z,96714.67
2022-10-02T11:45:33.571Z,96722.75
2022-10-02T11:48:33.779Z,96719.60
2022-10-02T11:51:36.575Z,96708.41
2022-10-02T11:54:28.501Z,96709.27
2022-10-02T11:57:29.314Z,96708.11
2022-10-02T12:00:16.159Z,96711.03
2022-10-02T12:02:56.728Z,96707.14
2022-10-02T12:05:55.842Z,96701.51
2022-10-02T12:08:58.297Z,96709.60
2022-10-02T12:12:06.778Z,96710.79
2022-10-02T12:14:42.938Z,96702.65
2022-10-02T12:17:31.958Z,96710.02
2022-10-02T12:20:57.005Z,96706.11
2022-10-02T12:24:00.674Z,96706.50
2022-10-02T12:27:21.386Z,96702.77
2022-10-02T12:29:56.482Z,96701.40
2022-10-02T12:32:39.164Z,96701.24
2022-10-02T12:35:28.568Z,96701.02
2022-10-02T12:38:28.192Z,96694.05
2022-10-02T12:40:58.356Z,96699.88
2022-10-02T12:43:56.053Z,96699.00
2022-10-02T12:47:14.449Z,96686.55
2022-10-02T12:49:46.981Z,96691.96
2022-10-02T12:52:37.426Z,96682.55
2022-10-02T12:55:48.336Z,96683.30
2022-10-02T12:59:03.321Z,96667.29
2022-10-02T13:01:52.798Z,96669.73
2022-10-02T13:04:47.140Z,96664.88
2022-10-02T13:11:02.590Z,96654.73
2022-10-02T13:13:54.296Z,96650.17
2022-10-02T13:17:05.145Z,96648.75
2022-10-02T13:19:38.362Z,96654.66
2022-10-02T13:22:19.884Z,96653.02
2022-10-02T13:25:18.254Z,96651.55
2022-10-02T13:28:13.682Z,96648.73
2022-10-02T13:34:22.730Z,96652.55
2022-10-02T13:37:13.241Z,96647.67
2022-10-02T13:40:17.270Z,96645.05
2022-10-02T13:43:30.776Z,96641.89
2022-10-02T13:46:30.597Z,96645.02
2022-10-02T13:52:22.515Z,96643.70
2022-10-02T13:55:50.506Z,96657.98
2022-10-02T13:59:14.055Z,96656.73
2022-10-02T14:02:26.554Z,96657.63
2022-10-02T14:05:42.768Z,96642.66
2022-10-02T14:08:45.192Z,96651.45
2022-10-02T14:14:50.045Z,96641.89
2022-10-02T14:18:05.297Z,96643.70
2022-10-02T14:21:36.358Z,96653.97
2022-10-02T14:28:26.061Z,96634.30
2022-10-02T14:31:49.096Z,96640.77
2022-10-02T14:38:45.300Z,96627.29
2022-10-02T14:41:49.951Z,96623.77
2022-10-02T14:45:12.890Z,96621.81
2022-10-02T14:48:00.308Z,96602.38
2022-10-02T14:51:01.532Z,96605.49
2022-10-02T14:53:48.274Z,96604.64
2022-10-02T14:59:47.119Z,96608.48
2022-10-02T15:02:49.152Z,96624.73
2022-10-02T15:05:21.260Z,96626.44
2022-10-02T15:08:00.090Z,96636.52
2022-10-02T15:10:37.807Z,96634.33
2022-10-02T15:13:15.447Z,96631.67
2022-10-02T15:16:24.386Z,96637.16
2022-10-02T15:19:09.829Z,96625.20
2022-10-02T15:22:14.886Z,96625.85
2022-10-02T15:28:34.714Z,96627.99
2022-10-02T15:31:17.397Z,96640.28
2022-10-02T15:34:24.414Z,96645.02
2022-10-02T15:37:35.615Z,96638.66
2022-10-02T15:40:55.694Z,96647.90
2022-10-02T15:44:26.960Z,96642.33
2022-10-02T15:56:54.389Z,96663.54
2022-10-02T16:02:38.463Z,96662.22
2022-10-02T16:05:29.666Z,96665.67
2022-10-02T16:08:33.131Z,96665.89
2022-10-02T16:14:47.715Z,96660.70
2022-10-02T16:18:08.428Z,96664.86
2022-10-02T16:21:07.468Z,96664.38
2022-10-02T16:24:07.847Z,96662.30
2022-10-02T16:27:01.706Z,96662.37
2022-10-02T16:30:08.723Z,96663.67
2022-10-02T16:33:23.471Z,96657.64
2022-10-02T16:36:47.547Z,96661.88
2022-10-02T16:42:40.484Z,96663.76
2022-10-02T16:45:33.622Z,96663.35
2022-10-02T16:48:27.502Z,96664.23
2022-10-02T16:51:21.639Z,96666.19
2022-10-02T16:54:10.407Z,96672.30
2022-10-02T16:57:01.919Z,96671.67
2022-10-02T17:00:07.892Z,96673.60
2022-10-02T17:03:07.367Z,96676.75
2022-10-02T17:05:46.410Z,96671.84
2022-10-02T17:08:29.443Z,96674.66
2022-10-02T17:11:17.542Z,96674.11
2022-10-02T17:14:02.265Z,96677.27
2022-10-02T17:16:56.794Z,96676.70
2022-10-02T17:19:48.052Z,96675.33
2022-10-02T17:22:43.272Z,96676.80
2022-10-02T17:25:36.142Z,96676.98
2022-10-02T17:28:24.520Z,96679.58
2022-10-02T17:34:32.603Z,96675.00
2022-10-02T17:37:14.893Z,96675.13
2022-10-02T17:40:09.237Z,96678.52
2022-10-02T17:42:52.181Z,96676.92
2022-10-02T17:45:29.239Z,96676.71
2022-10-02T17:48:32.230Z,96673.29
2022-10-02T17:51:51.686Z,96674.04
2022-10-02T17:55:14.074Z,96676.16
2022-10-02T17:57:59.553Z,96674.15
2022-10-02T18:00:41.372Z,96674.17
2022-10-02T18:03:52.778Z,96674.08
2022-10-02T18:07:18.518Z,96675.04
2022-10-02T18:13:41.912Z,96674.94
2022-10-02T18:20:17.791Z,96675.45
2022-10-02T18:23:31.140Z,96674.96
2022-10-02T18:26:06.982Z,96669.14
2022-10-02T18:29:08.448Z,96668.64
2022-10-02T18:31:59.799Z,96675.01
2022-10-02T18:34:43.796Z,96677.30
2022-10-02T18:37:47.547Z,96674.72
2022-10-02T18:44:29.631Z,96677.77
2022-10-02T18:50:34.321Z,96677.90
2022-10-02T18:53:20.361Z,96674.80
2022-10-02T18:56:13.846Z,96669.59
2022-10-02T18:59:10.604Z,96664.02
2022-10-02T19:02:27.251Z,96667.76
2022-10-02T19:05:22.832Z,96664.61
2022-10-02T19:08:04.136Z,96663.05
2022-10-02T19:10:51.104Z,96660.64
2022-10-02T19:13:28.952Z,96666.77
2022-10-02T19:16:35.018Z,96670.80
2022-10-02T19:19:21.951Z,96670.90
2022-10-02T19:22:08.426Z,96669.24
2022-10-02T19:24:46.828Z,96667.91
2022-10-02T19:27:40.291Z,96666.90
2022-10-02T19:30:43.489Z,96671.08
2022-10-02T19:33:21.933Z,96674.04
2022-10-02T19:35:52.939Z,96676.41
2022-10-02T19:38:39.004Z,96678.03
2022-10-02T19:41:15.553Z,96679.56
2022-10-02T19:44:01.058Z,96673.79
2022-10-02T19:46:45.162Z,96671.64
2022-10-02T19:49:34.274Z,96670.85
2022-10-02T19:52:49.604Z,96672.06
2022-10-02T19:55:56.226Z,96670.14
2022-10-02T19:59:26.328Z,96667.55
2022-10-02T20:02:41.156Z,96665.16
2022-10-02T20:05:20.160Z,96666.66
2022-10-02T20:07:53.946Z,96665.02
2022-10-02T20:10:49.301Z,96663.93
2022-10-02T20:13:59.653Z,96660.73
2022-10-02T20:16:47.213Z,96667.84
2022-10-02T20:19:38.191Z,96663.79
2022-10-02T20:22:15.931Z,96662.27
2022-10-02T20:25:06.025Z,96659.95
2022-10-02T20:27:57.807Z,96666.98
2022-10-02T20:33:54.084Z,96665.27
2022-10-02T20:37:11.264Z,96662.83
2022-10-02T20:39:48.577Z,96659.46
2022-10-02T20:43:06.524Z,96660.05
2022-10-02T20:46:29.556Z,96654.45
2022-10-02T20:49:27.026Z,96654.70
2022-10-02T20:52:19.257Z,96651.81
2022-10-02T20:54:48.595Z,96648.29
2022-10-02T20:57:56.393Z,96646.40
2022-10-02T21:00:42.433Z,96639.23
2022-10-02T21:03:57.942Z,96645.65
2022-10-02T21:07:07.482Z,96651.21
2022-10-02T21:09:43.466Z,96645.44
2022-10-02T21:12:33.084Z,96646.80
2022-10-02T21:15:18.450Z,96649.25
2022-10-02T21:18:18.731Z,96650.00
2022-10-02T21:20:59.257Z,96651.45
2022-10-02T21:23:47.272Z,96648.80
2022-10-02T21:26:40.068Z,96647.54
2022-10-02T21:32:41.324Z,96642.29
2022-10-02T21:35:49.878Z,96649.15
2022-10-02T21:38:38.348Z,96650.99
2022-10-02T21:41:48.811Z,96652.05
2022-10-02T21:45:17.327Z,96647.73
2022-10-02T21:49:19.386Z,96641.45
2022-10-02T21:52:07.029Z,96638.34
2022-10-02T21:55:14.179Z,96631.70
2022-10-02T21:58:08.055Z,96634.05
2022-10-02T22:05:15.536Z,96629.38
2022-10-02T22:08:29.958Z,96630.18
2022-10-02T22:11:16.250Z,96625.31
2022-10-02T22:17:26.228Z,96619.17
2022-10-02T22:20:36.209Z,96612.23
2022-10-02T22:23:25.874Z,96610.08
2022-10-02T22:26:27.443Z,96610.59
2022-10-02T22:29:41.744Z,96612.61
2022-10-02T22:33:11.563Z,96607.14
2022-10-02T22:36:38.157Z,96603.52
2022-10-02T22:39:21.173Z,96603.04
2022-10-02T22:42:14.579Z,96600.04
2022-10-02T22:44:57.901Z,96600.16
2022-10-02T22:48:02.232Z,96600.52
2022-10-02T22:50:51.475Z,96599.95
2022-10-02T22:54:14.374Z,96595.14
2022-10-02T22:56:53.851Z,96589.41
2022-10-02T23:03:16.645Z,96577.85
2022-10-02T23:06:33.704Z,96571.54
2022-10-02T23:09:07.802Z,96566.72
2022-10-02T23:11:59.730Z,96559.23
2022-10-02T23:15:07.990Z,96555.45
2022-10-02T23:17:56.001Z,96556.04
2022-10-02T23:21:18.376Z,96550.52
2022-10-02T23:24:06.991Z,96551.76
2022-10-02T23:26:49.710Z,96546.27
2022-10-02T23:29:52.342Z,96542.49
2022-10-02T23:32:51.636Z,96544.48
2022-10-02T23:35:59.062Z,96555.12
2022-10-02T23:39:03.878Z,96561.10
2022-10-02T23:41:48.511Z,96557.70
2022-10-02T23:44:45.986Z,96548.44
2022-10-02T23:47:30.339Z,96548.54
2022-10-02T23:50:34.400Z,96540.77
2022-10-02T23:53:47.848Z,96533.92
2022-10-02T23:56:58.968Z,96530.41
2022-10-02T23:59:54.196Z,96530.41
